Time;durP1;ratioP1;P1;durP2;ratioP2;P2;SDS_P1;SDS_P2;PMS_P1;PMS_P2;Temp;Humidity;BMP_temperature;BMP_pressure;BME280_temperature;BME280_humidity;BME280_pressure;Samples;Min_cycle;Max_cycle;Signal;HPM_P1;HPM_P2
2021/06/02 00:00:23;;;;;;;3.25;2.03;;;;;;;;;;6312328;22;20023;-82
2021/06/02 00:02:53;;;;;;;3.88;2.33;;;;;;;;;;6331381;22;20255;-83
2021/06/02 00:05:20;;;;;;;2.35;1.83;;;;;;;;;;6328546;22;20027;-83
2021/06/02 00:07:47;;;;;;;4.60;2.13;;;;;;;;;;6312463;22;20031;-82
2021/06/02 00:10:14;;;;;;;6.50;2.30;;;;;;;;;;6309452;22;20034;-82
2021/06/02 00:12:41;;;;;;;4.43;2.35;;;;;;;;;;6310169;22;20031;-82
2021/06/02 00:15:09;;;;;;;4.07;2.95;;;;;;;;;;6311236;22;20050;-82
2021/06/02 00:17:35;;;;;;;3.80;2.40;;;;;;;;;;6308664;22;20285;-82
2021/06/02 00:20:05;;;;;;;7.32;2.42;;;;;;;;;;6309736;22;20088;-83
2021/06/02 00:22:33;;;;;;;7.35;2.40;;;;;;;;;;6311646;22;20027;-82
2021/06/02 00:24:59;;;;;;;5.32;2.08;;;;;;;;;;6310749;22;20022;-82
2021/06/02 00:27:26;;;;;;;3.78;2.53;;;;;;;;;;6310862;22;20027;-83
2021/06/02 00:29:52;;;;;;;3.85;2.22;;;;;;;;;;6309075;22;20062;-84
2021/06/02 00:32:20;;;;;;;4.75;2.45;;;;;;;;;;6311178;22;20034;-83
2021/06/02 00:34:48;;;;;;;4.05;1.80;;;;;;;;;;6310450;22;20144;-82
2021/06/02 00:37:15;;;;;;;4.80;2.50;;;;;;;;;;6311344;22;20031;-83
2021/06/02 00:39:47;;;;;;;6.75;2.45;;;;;;;;;;6310802;22;20084;-83
2021/06/02 00:42:14;;;;;;;5.22;2.03;;;;;;;;;;6310303;22;20051;-83
2021/06/02 00:44:40;;;;;;;3.80;2.80;;;;;;;;;;6312179;22;20031;-83
2021/06/02 00:47:10;;;;;;;3.92;2.53;;;;;;;;;;6309769;22;20025;-83
2021/06/02 00:49:37;;;;;;;4.18;2.47;;;;;;;;;;6309954;22;20097;-82
2021/06/02 00:52:04;;;;;;;6.45;2.80;;;;;;;;;;6318701;22;20078;-83
2021/06/02 00:54:36;;;;;;;6.80;3.08;;;;;;;;;;6314164;22;20030;-83
2021/06/02 00:57:17;;;;;;;7.35;2.67;;;;;;;;;;6313079;22;20035;-82
2021/06/02 00:59:46;;;;;;;6.18;2.83;;;;;;;;;;6310637;22;20039;-83
2021/06/02 01:02:19;;;;;;;4.50;2.45;;;;;;;;;;6311712;22;20347;-83
2021/06/02 01:04:47;;;;;;;5.63;2.78;;;;;;;;;;6309969;22;20034;-83
2021/06/02 01:07:20;;;;;;;6.38;3.30;;;;;;;;;;6311773;22;20026;-83
2021/06/02 01:09:48;;;;;;;6.00;3.50;;;;;;;;;;6312551;22;20027;-83
2021/06/02 01:12:21;;;;;;;6.72;3.17;;;;;;;;;;6311334;22;20315;-83
2021/06/02 01:14:48;;;;;;;5.35;2.83;;;;;;;;;;6312028;22;20102;-82
2021/06/02 01:17:16;;;;;;;7.25;3.45;;;;;;;;;;6311925;22;20075;-83
2021/06/02 01:19:43;;;;;;;7.70;3.72;;;;;;;;;;6310288;22;20396;-83
2021/06/02 01:22:12;;;;;;;4.22;3.10;;;;;;;;;;6311515;22;20162;-82
2021/06/02 01:24:39;;;;;;;5.93;3.90;;;;;;;;;;6310975;22;20020;-83
2021/06/02 01:27:07;;;;;;;11.68;4.47;;;;;;;;;;6311185;22;20015;-83
2021/06/02 01:29:35;;;;;;;8.40;3.45;;;;;;;;;;6310426;22;20038;-83
2021/06/02 01:32:11;;;;;;;6.65;4.25;;;;;;;;;;6312105;22;20348;-83
2021/06/02 01:34:39;;;;;;;10.18;4.40;;;;;;;;;;6311362;22;20343;-83
2021/06/02 01:37:12;;;;;;;6.03;4.65;;;;;;;;;;6310235;22;20024;-82
2021/06/02 01:39:51;;;;;;;9.18;4.85;;;;;;;;;;6311413;22;20348;-84
2021/06/02 01:42:24;;;;;;;10.60;4.60;;;;;;;;;;6310999;22;20068;-82
2021/06/02 01:45:23;;;;;;;10.15;4.63;;;;;;;;;;6308623;22;20023;-83
2021/06/02 01:48:03;;;;;;;10.60;5.10;;;;;;;;;;6310778;22;20106;-84
2021/06/02 01:50:48;;;;;;;7.65;5.22;;;;;;;;;;6310529;22;20031;-83
2021/06/02 01:53:15;;;;;;;9.82;4.75;;;;;;;;;;6310609;22;20339;-84
2021/06/02 01:55:45;;;;;;;6.25;4.40;;;;;;;;;;6310494;22;20342;-83
2021/06/02 01:58:21;;;;;;;11.95;5.55;;;;;;;;;;6310366;22;20033;-83
2021/06/02 02:00:53;;;;;;;9.40;5.38;;;;;;;;;;6309115;22;20369;-83
2021/06/02 02:03:42;;;;;;;10.35;6.10;;;;;;;;;;6309945;22;20023;-83
2021/06/02 02:06:18;;;;;;;9.93;5.78;;;;;;;;;;6308241;22;20034;-83
2021/06/02 02:08:57;;;;;;;14.02;5.80;;;;;;;;;;6309192;22;20058;-83
2021/06/02 02:11:28;;;;;;;11.13;6.07;;;;;;;;;;6309257;22;20611;-84
2021/06/02 02:14:14;;;;;;;13.38;6.47;;;;;;;;;;6307678;22;20023;-84
2021/06/02 02:16:53;;;;;;;8.60;5.90;;;;;;;;;;6314147;22;20023;-82
2021/06/02 02:19:25;;;;;;;13.85;6.82;;;;;;;;;;6313222;22;20028;-84
2021/06/02 02:22:14;;;;;;;9.75;6.45;;;;;;;;;;6310387;22;20023;-82
2021/06/02 02:24:47;;;;;;;13.80;7.35;;;;;;;;;;6312158;22;20023;-82
2021/06/02 02:27:23;;;;;;;9.90;6.90;;;;;;;;;;6309792;22;20098;-82
2021/06/02 02:29:57;;;;;;;13.00;7.30;;;;;;;;;;6311473;22;20106;-83
2021/06/02 02:32:42;;;;;;;19.05;8.10;;;;;;;;;;6312327;22;20023;-82
2021/06/02 02:35:25;;;;;;;9.68;7.30;;;;;;;;;;6309863;22;20023;-82
2021/06/02 02:38:15;;;;;;;12.02;7.70;;;;;;;;;;6311140;22;20403;-82
2021/06/02 02:40:46;;;;;;;11.02;7.57;;;;;;;;;;6310564;22;20111;-82
2021/06/02 02:43:32;;;;;;;13.57;7.22;;;;;;;;;;6312039;22;20114;-82
2021/06/02 02:46:15;;;;;;;10.35;7.18;;;;;;;;;;6313639;22;20301;-82
2021/06/02 02:48:48;;;;;;;9.57;7.22;;;;;;;;;;6310593;22;20042;-82
2021/06/02 02:51:24;;;;;;;14.15;7.30;;;;;;;;;;6312024;22;20027;-82
2021/06/02 02:54:03;;;;;;;16.42;8.48;;;;;;;;;;6311569;22;20315;-82
2021/06/02 02:56:39;;;;;;;17.08;9.23;;;;;;;;;;6312805;22;20034;-82
2021/06/02 02:59:12;;;;;;;16.33;8.65;;;;;;;;;;6310437;22;20312;-81
2021/06/02 03:01:47;;;;;;;13.40;7.88;;;;;;;;;;6311889;22;20023;-81
2021/06/02 03:04:20;;;;;;;16.70;8.57;;;;;;;;;;6311505;22;20347;-82
2021/06/02 03:06:53;;;;;;;14.70;8.27;;;;;;;;;;6312143;22;20023;-82
2021/06/02 03:09:46;;;;;;;17.50;8.38;;;;;;;;;;6312721;22;20038;-82
2021/06/02 03:12:32;;;;;;;12.10;8.30;;;;;;;;;;6275807;22;20146;-81
2021/06/02 03:15:19;;;;;;;14.13;8.45;;;;;;;;;;6312268;22;20024;-81
2021/06/02 03:17:50;;;;;;;15.15;8.50;;;;;;;;;;6293458;22;20107;-81
2021/06/02 03:20:34;;;;;;;14.85;8.90;;;;;;;;;;6311856;22;20051;-82
2021/06/02 03:23:01;;;;;;;12.80;8.73;;;;;;;;;;6313310;22;20023;-82
2021/06/02 03:25:33;;;;;;;15.23;9.18;;;;;;;;;;6330715;22;20023;-82
2021/06/02 03:28:14;;;;;;;13.63;8.57;;;;;;;;;;6332281;22;20014;-82
2021/06/02 03:30:47;;;;;;;14.15;8.82;;;;;;;;;;6310513;22;20324;-82
2021/06/02 03:33:28;;;;;;;15.73;8.85;;;;;;;;;;6309505;22;20366;-82
2021/06/02 03:36:07;;;;;;;14.88;8.55;;;;;;;;;;6310698;22;20031;-82
2021/06/02 03:38:52;;;;;;;17.13;8.10;;;;;;;;;;6311072;22;20027;-82
2021/06/02 03:41:19;;;;;;;14.35;8.02;;;;;;;;;;6311944;22;20025;-81
2021/06/02 03:43:47;;;;;;;13.57;8.50;;;;;;;;;;6316944;22;20034;-82
2021/06/02 03:46:33;;;;;;;12.10;8.13;;;;;;;;;;6314027;22;20034;-82
2021/06/02 03:49:00;;;;;;;12.55;7.38;;;;;;;;;;6311009;22;20047;-82
2021/06/02 03:51:45;;;;;;;13.63;7.78;;;;;;;;;;6309900;22;20023;-82
2021/06/02 03:54:15;;;;;;;12.00;7.20;;;;;;;;;;6310580;22;20034;-83
2021/06/02 03:57:01;;;;;;;10.32;7.00;;;;;;;;;;6317106;22;20082;-83
2021/06/02 03:59:46;;;;;;;11.48;6.90;;;;;;;;;;6317833;22;20023;-82
2021/06/02 04:02:18;;;;;;;11.40;6.57;;;;;;;;;;6317070;22;20011;-82
2021/06/02 04:05:11;;;;;;;11.15;6.45;;;;;;;;;;6314631;22;20457;-82
2021/06/02 04:07:38;;;;;;;8.50;5.75;;;;;;;;;;6310227;22;20030;-82
2021/06/02 04:10:11;;;;;;;8.20;5.57;;;;;;;;;;6315814;22;20110;-82
2021/06/02 04:12:49;;;;;;;10.32;5.68;;;;;;;;;;6315750;22;20039;-82
2021/06/02 04:15:17;;;;;;;8.18;5.10;;;;;;;;;;6312681;22;20152;-83
2021/06/02 04:17:51;;;;;;;7.32;4.38;;;;;;;;;;6308522;22;20027;-82
2021/06/02 04:20:18;;;;;;;9.38;5.18;;;;;;;;;;6311842;22;20022;-83
2021/06/02 04:22:46;;;;;;;7.22;4.60;;;;;;;;;;6311794;22;20023;-83
2021/06/02 04:25:17;;;;;;;7.18;4.32;;;;;;;;;;6307885;22;20023;-82
2021/06/02 04:27:45;;;;;;;5.25;3.75;;;;;;;;;;6308313;22;20106;-82
2021/06/02 04:30:13;;;;;;;8.52;4.00;;;;;;;;;;6307688;22;20027;-82
2021/06/02 04:32:42;;;;;;;6.28;3.60;;;;;;;;;;6307579;22;20027;-82
2021/06/02 04:35:10;;;;;;;4.85;3.45;;;;;;;;;;6309147;22;20023;-83
2021/06/02 04:37:37;;;;;;;10.00;3.35;;;;;;;;;;6309028;22;20023;-83
2021/06/02 04:40:08;;;;;;;4.63;3.28;;;;;;;;;;6305374;22;20030;-82
2021/06/02 04:42:38;;;;;;;4.60;2.75;;;;;;;;;;6305057;22;20027;-82
2021/06/02 04:45:06;;;;;;;4.93;3.00;;;;;;;;;;6305085;22;20034;-82
2021/06/02 04:47:33;;;;;;;4.03;2.75;;;;;;;;;;6305981;22;20034;-83
2021/06/02 04:50:12;;;;;;;6.20;2.70;;;;;;;;;;6303130;22;20027;-83
2021/06/02 04:52:58;;;;;;;8.43;3.67;;;;;;;;;;6305315;22;20430;-83
2021/06/02 04:55:40;;;;;;;4.35;2.72;;;;;;;;;;6306597;22;20218;-83
2021/06/02 04:58:15;;;;;;;5.57;2.45;;;;;;;;;;6303443;22;20062;-82
2021/06/02 05:00:54;;;;;;;3.70;2.92;;;;;;;;;;6303307;22;20106;-83
2021/06/02 05:03:24;;;;;;;2.85;2.15;;;;;;;;;;6303768;22;20271;-82
2021/06/02 05:06:09;;;;;;;5.15;2.17;;;;;;;;;;6306357;22;20019;-82
2021/06/02 05:08:36;;;;;;;3.00;1.92;;;;;;;;;;6305022;22;20023;-81
2021/06/02 05:11:12;;;;;;;3.40;2.05;;;;;;;;;;6306144;22;20027;-83
2021/06/02 05:13:42;;;;;;;6.30;2.20;;;;;;;;;;6304907;22;20231;-81
2021/06/02 05:16:08;;;;;;;6.68;2.38;;;;;;;;;;6303772;22;20034;-82
2021/06/02 05:18:59;;;;;;;4.00;2.20;;;;;;;;;;6303701;22;20058;-82
2021/06/02 05:24:49;;;;;;;4.18;1.55;;;;;;;;;;6302026;22;20023;-81
2021/06/02 05:27:34;;;;;;;2.33;1.70;;;;;;;;;;6301476;22;20622;-81
2021/06/02 05:30:04;;;;;;;5.40;1.20;;;;;;;;;;6300102;22;20034;-82
2021/06/02 05:32:30;;;;;;;4.63;1.60;;;;;;;;;;6300922;22;20027;-83
2021/06/02 05:35:00;;;;;;;4.68;1.88;;;;;;;;;;6304425;22;20194;-83
2021/06/02 05:37:32;;;;;;;5.50;1.75;;;;;;;;;;6302638;22;20527;-81
2021/06/02 05:40:21;;;;;;;8.35;2.25;;;;;;;;;;6303149;22;20050;-81
2021/06/02 05:42:50;;;;;;;2.20;1.38;;;;;;;;;;6298537;22;20105;-82
2021/06/02 05:45:37;;;;;;;3.42;1.50;;;;;;;;;;6299021;22;20029;-82
2021/06/02 05:48:13;;;;;;;4.20;1.43;;;;;;;;;;6302102;22;20045;-82
2021/06/02 05:50:53;;;;;;;2.75;1.75;;;;;;;;;;6299185;22;20322;-81
2021/06/02 05:53:39;;;;;;;3.17;1.70;;;;;;;;;;6300773;22;20367;-81
2021/06/02 05:56:25;;;;;;;3.03;1.50;;;;;;;;;;6300638;22;20031;-81
2021/06/02 05:59:10;;;;;;;5.07;1.50;;;;;;;;;;6301298;22;20081;-83
2021/06/02 06:01:46;;;;;;;2.35;1.60;;;;;;;;;;6295779;22;20471;-83
2021/06/02 06:04:42;;;;;;;1.80;1.42;;;;;;;;;;6300145;22;20328;-82
2021/06/02 06:07:23;;;;;;;8.82;1.55;;;;;;;;;;6298348;22;20278;-82
2021/06/02 06:09:51;;;;;;;4.60;1.27;;;;;;;;;;6301216;22;20282;-82
2021/06/02 06:12:40;;;;;;;2.72;1.20;;;;;;;;;;6303439;22;20015;-83
2021/06/02 06:15:25;;;;;;;4.05;1.58;;;;;;;;;;6304190;22;20101;-81
2021/06/02 06:18:07;;;;;;;7.45;1.60;;;;;;;;;;6301321;22;20068;-81
2021/06/02 06:20:33;;;;;;;2.50;1.58;;;;;;;;;;6299754;22;20411;-81
2021/06/02 06:23:00;;;;;;;4.40;1.30;;;;;;;;;;6298018;22;20034;-81
2021/06/02 06:25:33;;;;;;;4.40;1.40;;;;;;;;;;6301671;22;20113;-82
2021/06/02 06:28:20;;;;;;;4.95;1.50;;;;;;;;;;6303652;22;20038;-82
2021/06/02 06:30:51;;;;;;;3.45;1.10;;;;;;;;;;6291215;22;20024;-84
2021/06/02 06:33:22;;;;;;;1.92;1.35;;;;;;;;;;6307083;22;20291;-81
2021/06/02 06:35:54;;;;;;;3.40;1.30;;;;;;;;;;6307557;22;20098;-82
2021/06/02 06:38:23;;;;;;;2.70;1.25;;;;;;;;;;6307095;22;20272;-82
2021/06/02 06:40:55;;;;;;;1.90;1.13;;;;;;;;;;6302559;22;20090;-82
2021/06/02 06:43:26;;;;;;;2.47;1.40;;;;;;;;;;6306142;22;20023;-81
2021/06/02 06:45:54;;;;;;;3.47;1.58;;;;;;;;;;6307344;22;20073;-83
2021/06/02 06:48:22;;;;;;;4.00;1.42;;;;;;;;;;6320096;22;20007;-82
2021/06/02 06:50:50;;;;;;;3.58;1.30;;;;;;;;;;6315726;22;20054;-83
2021/06/02 06:53:19;;;;;;;4.80;1.50;;;;;;;;;;6299990;22;20033;-83
2021/06/02 06:55:50;;;;;;;5.95;2.22;;;;;;;;;;6300125;22;20023;-83
2021/06/02 06:58:19;;;;;;;4.53;1.38;;;;;;;;;;6300357;22;20023;-81
2021/06/02 07:00:51;;;;;;;3.30;1.42;;;;;;;;;;6297304;22;20023;-81
2021/06/02 07:03:18;;;;;;;4.07;1.30;;;;;;;;;;6297979;22;20094;-81
2021/06/02 07:05:46;;;;;;;2.55;1.80;;;;;;;;;;6302040;22;20023;-82
2021/06/02 07:08:13;;;;;;;4.80;1.40;;;;;;;;;;6298046;22;20098;-82
2021/06/02 07:10:40;;;;;;;4.95;1.58;;;;;;;;;;6302136;22;20097;-83
2021/06/02 07:13:08;;;;;;;3.47;1.73;;;;;;;;;;6302628;22;20031;-83
2021/06/02 07:15:44;;;;;;;4.30;1.45;;;;;;;;;;6307431;22;20053;-83
2021/06/02 07:18:15;;;;;;;3.65;1.77;;;;;;;;;;6300204;22;20023;-83
2021/06/02 07:20:42;;;;;;;4.72;1.55;;;;;;;;;;6301183;22;20023;-82
2021/06/02 07:23:10;;;;;;;2.58;1.60;;;;;;;;;;6298783;22;20117;-82
2021/06/02 07:25:36;;;;;;;4.93;1.77;;;;;;;;;;6297689;22;20151;-82
2021/06/02 07:28:08;;;;;;;6.00;1.85;;;;;;;;;;6301149;22;20270;-82
2021/06/02 07:30:36;;;;;;;3.17;1.70;;;;;;;;;;6300175;22;20026;-82
2021/06/02 07:33:04;;;;;;;6.53;1.60;;;;;;;;;;6298538;22;20253;-81
2021/06/02 07:35:34;;;;;;;7.32;1.40;;;;;;;;;;6300326;22;20100;-81
2021/06/02 07:38:02;;;;;;;8.48;1.92;;;;;;;;;;6300232;22;20046;-82
2021/06/02 07:40:29;;;;;;;5.82;1.60;;;;;;;;;;6301641;22;20026;-82
2021/06/02 07:42:55;;;;;;;4.82;1.73;;;;;;;;;;6302090;22;20023;-83
2021/06/02 07:45:24;;;;;;;2.75;1.90;;;;;;;;;;6301015;22;20023;-82
2021/06/02 07:47:51;;;;;;;9.80;1.90;;;;;;;;;;6302481;22;20027;-82
2021/06/02 07:50:17;;;;;;;9.43;2.03;;;;;;;;;;6301374;22;20080;-82
2021/06/02 07:52:44;;;;;;;3.88;1.58;;;;;;;;;;6300703;22;20027;-82
2021/06/02 07:55:12;;;;;;;2.05;1.25;;;;;;;;;;6300135;22;20019;-82
2021/06/02 07:57:40;;;;;;;1.88;1.48;;;;;;;;;;6303037;22;20272;-82
2021/06/02 08:00:11;;;;;;;6.10;2.20;;;;;;;;;;6305440;22;20034;-82
2021/06/02 08:02:38;;;;;;;15.05;2.30;;;;;;;;;;6307219;22;20031;-81
2021/06/02 08:05:05;;;;;;;6.53;2.00;;;;;;;;;;6302671;22;20034;-83
2021/06/02 08:07:49;;;;;;;3.78;1.75;;;;;;;;;;6303114;22;20505;-82
2021/06/02 08:10:17;;;;;;;4.03;1.75;;;;;;;;;;6304387;22;20110;-85
2021/06/02 08:12:45;;;;;;;6.07;2.05;;;;;;;;;;6304908;22;20051;-82
2021/06/02 08:15:12;;;;;;;5.32;1.83;;;;;;;;;;6301933;22;20381;-83
2021/06/02 08:17:44;;;;;;;5.35;1.50;;;;;;;;;;6300499;22;20033;-83
2021/06/02 08:20:24;;;;;;;3.08;1.85;;;;;;;;;;6300841;22;20031;-83
2021/06/02 08:22:51;;;;;;;4.35;1.95;;;;;;;;;;6300037;22;20231;-83
2021/06/02 08:25:23;;;;;;;3.95;1.80;;;;;;;;;;6301807;22;20045;-82
2021/06/02 08:27:50;;;;;;;3.83;2.03;;;;;;;;;;6304598;22;20292;-82
2021/06/02 08:30:18;;;;;;;4.60;1.70;;;;;;;;;;6307774;22;20106;-83
2021/06/02 08:32:46;;;;;;;8.60;2.13;;;;;;;;;;6298988;22;20023;-83
2021/06/02 08:35:23;;;;;;;6.97;2.05;;;;;;;;;;6305298;22;20023;-82
2021/06/02 08:37:50;;;;;;;3.13;1.65;;;;;;;;;;6299240;22;20253;-83
2021/06/02 08:40:17;;;;;;;12.63;3.00;;;;;;;;;;6300719;22;20019;-82
2021/06/02 08:42:49;;;;;;;3.65;1.80;;;;;;;;;;6303739;22;20024;-83
2021/06/02 08:45:23;;;;;;;5.25;2.08;;;;;;;;;;6302648;22;20090;-83
2021/06/02 08:47:50;;;;;;;5.72;2.15;;;;;;;;;;6297993;22;20379;-82
2021/06/02 08:50:21;;;;;;;8.27;2.17;;;;;;;;;;6294198;22;20092;-82
2021/06/02 08:52:52;;;;;;;3.65;1.90;;;;;;;;;;6293716;22;20187;-82
2021/06/02 08:55:20;;;;;;;6.03;2.00;;;;;;;;;;6295597;22;20376;-81
2021/06/02 08:57:48;;;;;;;5.20;1.88;;;;;;;;;;6300001;22;20108;-83
2021/06/02 09:00:17;;;;;;;5.65;2.03;;;;;;;;;;6300358;22;20012;-82
2021/06/02 09:02:53;;;;;;;5.88;2.22;;;;;;;;;;6299990;22;20304;-83
2021/06/02 09:05:20;;;;;;;7.65;2.50;;;;;;;;;;6300860;22;20033;-82
2021/06/02 09:07:51;;;;;;;8.13;2.72;;;;;;;;;;6299342;22;20023;-82
2021/06/02 09:10:23;;;;;;;4.05;2.33;;;;;;;;;;6308919;22;20038;-83
2021/06/02 09:12:53;;;;;;;11.00;2.33;;;;;;;;;;6313692;22;20024;-82
2021/06/02 09:15:20;;;;;;;3.28;2.25;;;;;;;;;;6311498;22;20023;-83
2021/06/02 09:18:06;;;;;;;2.85;2.08;;;;;;;;;;6306528;22;20077;-83
2021/06/02 09:20:32;;;;;;;4.03;2.00;;;;;;;;;;6298712;22;20058;-83
2021/06/02 09:23:22;;;;;;;6.97;2.15;;;;;;;;;;6300280;22;20020;-82
2021/06/02 09:25:49;;;;;;;4.13;2.35;;;;;;;;;;6303349;22;20024;-82
2021/06/02 09:28:15;;;;;;;4.40;2.40;;;;;;;;;;6308760;22;20077;-82
2021/06/02 09:30:42;;;;;;;4.45;2.17;;;;;;;;;;6310140;22;20053;-83
2021/06/02 09:33:09;;;;;;;6.35;2.10;;;;;;;;;;6312755;22;20027;-83
2021/06/02 09:35:40;;;;;;;4.22;1.75;;;;;;;;;;6312495;22;20015;-84
2021/06/02 09:38:22;;;;;;;8.40;2.60;;;;;;;;;;6306229;22;20142;-83
2021/06/02 09:40:52;;;;;;;7.25;1.98;;;;;;;;;;6304641;22;20059;-83
2021/06/02 09:43:28;;;;;;;7.43;2.17;;;;;;;;;;6297531;22;20234;-82
2021/06/02 09:46:06;;;;;;;6.93;1.75;;;;;;;;;;6300037;22;20034;-83
2021/06/02 09:48:38;;;;;;;3.10;2.47;;;;;;;;;;6300420;22;20034;-83
2021/06/02 09:51:06;;;;;;;7.03;2.65;;;;;;;;;;6298508;22;20027;-82
2021/06/02 09:53:52;;;;;;;5.50;2.45;;;;;;;;;;6298711;22;20023;-83
2021/06/02 09:56:32;;;;;;;3.97;2.33;;;;;;;;;;6299322;22;20027;-83
2021/06/02 09:58:59;;;;;;;4.20;2.10;;;;;;;;;;6300787;22;20231;-83
2021/06/02 10:01:25;;;;;;;4.93;2.30;;;;;;;;;;6301416;22;20247;-83
2021/06/02 10:03:53;;;;;;;3.20;2.10;;;;;;;;;;6298992;22;20050;-83
2021/06/02 10:06:23;;;;;;;3.97;2.58;;;;;;;;;;6299800;22;20024;-82
2021/06/02 10:08:55;;;;;;;3.40;2.03;;;;;;;;;;6302433;22;20023;-82
2021/06/02 10:11:27;;;;;;;5.78;2.47;;;;;;;;;;6317870;22;20081;-83
2021/06/02 10:13:55;;;;;;;3.88;1.92;;;;;;;;;;6310855;22;20103;-82
2021/06/02 10:16:47;;;;;;;7.47;2.70;;;;;;;;;;6295230;22;20271;-83
2021/06/02 10:19:14;;;;;;;8.82;2.08;;;;;;;;;;6293272;22;20121;-83
2021/06/02 10:21:55;;;;;;;5.30;2.53;;;;;;;;;;6295092;22;20171;-82
2021/06/02 10:24:27;;;;;;;5.22;2.63;;;;;;;;;;6298917;22;20023;-83
2021/06/02 10:26:54;;;;;;;5.85;2.38;;;;;;;;;;6297590;22;20257;-84
2021/06/02 10:29:21;;;;;;;6.78;2.30;;;;;;;;;;6297376;22;20027;-82
2021/06/02 10:31:48;;;;;;;8.63;2.40;;;;;;;;;;6296374;22;20042;-83
2021/06/02 10:34:27;;;;;;;6.30;2.28;;;;;;;;;;6299808;22;20056;-83
2021/06/02 10:36:53;;;;;;;8.45;2.95;;;;;;;;;;6297663;22;20073;-84
2021/06/02 10:39:24;;;;;;;10.77;2.42;;;;;;;;;;6296314;22;20027;-83
2021/06/02 10:41:54;;;;;;;3.50;2.58;;;;;;;;;;6298944;22;20076;-82
2021/06/02 10:44:21;;;;;;;4.90;2.22;;;;;;;;;;6299765;22;20016;-82
2021/06/02 10:46:50;;;;;;;4.50;2.50;;;;;;;;;;6299675;22;20023;-83
2021/06/02 10:49:32;;;;;;;4.57;2.35;;;;;;;;;;6298901;22;20053;-82
2021/06/02 10:51:58;;;;;;;4.65;2.25;;;;;;;;;;6296033;22;20054;-82
2021/06/02 10:54:43;;;;;;;5.32;2.45;;;;;;;;;;6297917;22;20037;-82
2021/06/02 10:57:16;;;;;;;3.15;2.15;;;;;;;;;;6302165;22;20027;-83
2021/06/02 10:59:49;;;;;;;11.38;4.32;;;;;;;;;;6301818;22;20023;-83
2021/06/02 11:02:18;;;;;;;5.75;2.45;;;;;;;;;;6303152;22;20243;-84
2021/06/02 11:05:00;;;;;;;5.32;2.40;;;;;;;;;;6303586;22;20026;-83
2021/06/02 11:07:31;;;;;;;3.78;2.15;;;;;;;;;;6300351;22;20049;-83
2021/06/02 11:10:10;;;;;;;7.53;2.67;;;;;;;;;;6301030;22;20212;-83
2021/06/02 11:12:49;;;;;;;9.13;2.25;;;;;;;;;;6304485;22;20074;-84
2021/06/02 11:15:31;;;;;;;5.75;2.38;;;;;;;;;;6301126;22;20258;-84
2021/06/02 11:18:22;;;;;;;4.03;2.28;;;;;;;;;;6303680;22;20031;-84
2021/06/02 11:20:50;;;;;;;8.02;2.45;;;;;;;;;;6305565;22;20027;-83
2021/06/02 11:23:18;;;;;;;7.10;2.35;;;;;;;;;;6301035;22;20153;-84
2021/06/02 11:25:46;;;;;;;5.22;2.60;;;;;;;;;;6306755;22;20094;-84
2021/06/02 11:28:35;;;;;;;4.53;2.30;;;;;;;;;;6308775;22;20023;-84
2021/06/02 11:31:28;;;;;;;3.55;2.38;;;;;;;;;;6302376;22;20027;-83
2021/06/02 11:34:13;;;;;;;5.13;2.67;;;;;;;;;;6298598;22;20021;-83
2021/06/02 11:36:58;;;;;;;6.32;2.10;;;;;;;;;;6302554;22;20031;-82
2021/06/02 11:39:26;;;;;;;4.03;2.13;;;;;;;;;;6303711;22;20092;-85
2021/06/02 11:41:57;;;;;;;8.98;3.17;;;;;;;;;;6306778;22;20023;-84
2021/06/02 11:44:31;;;;;;;6.78;3.53;;;;;;;;;;6299322;22;20301;-84
2021/06/02 11:47:03;;;;;;;6.50;3.22;;;;;;;;;;6296422;22;20038;-83
2021/06/02 11:49:32;;;;;;;6.25;2.92;;;;;;;;;;6299015;22;20223;-83
2021/06/02 11:52:09;;;;;;;4.05;3.00;;;;;;;;;;6301234;22;20046;-83
2021/06/02 11:54:54;;;;;;;6.43;3.20;;;;;;;;;;6299625;22;20034;-83
2021/06/02 11:57:31;;;;;;;6.15;3.38;;;;;;;;;;6303998;22;20305;-83
2021/06/02 12:00:02;;;;;;;11.00;3.00;;;;;;;;;;6301912;22;20041;-83
2021/06/02 12:02:29;;;;;;;6.32;3.70;;;;;;;;;;6301278;22;20189;-83
2021/06/02 12:05:18;;;;;;;7.18;3.67;;;;;;;;;;6307117;22;20023;-83
2021/06/02 12:07:54;;;;;;;7.13;2.88;;;;;;;;;;6306073;22;20047;-84
2021/06/02 12:10:22;;;;;;;5.90;3.25;;;;;;;;;;6306452;22;20023;-84
2021/06/02 12:27:46;;;;;;;4.95;2.83;;;;;;;31.53;25.72;101646.13;5173164;27;24747;-82
2021/06/02 12:30:20;;;;;;;3.42;3.05;;;;;;;32.07;24.81;101635.13;5153885;27;20047;-84
2021/06/02 12:33:08;;;;;;;7.32;3.88;;;;;;;32.27;24.22;101629.31;5131067;27;20230;-82
2021/06/02 12:35:43;;;;;;;5.25;3.00;;;;;;;33.16;22.86;101635.53;5115513;27;20065;-82
2021/06/02 12:38:22;;;;;;;4.00;2.80;;;;;;;34.51;22.12;101636.91;5119188;27;20141;-83
2021/06/02 12:40:52;;;;;;;9.48;3.67;;;;;;;32.28;23.51;101636.31;5131568;27;20078;-83
2021/06/02 12:43:21;;;;;;;8.02;3.38;;;;;;;33.97;21.81;101634.34;5129029;27;20047;-83
2021/06/02 12:45:53;;;;;;;6.05;3.40;;;;;;;32.69;22.12;101636.28;5148208;27;20429;-82
2021/06/02 12:48:36;;;;;;;8.05;3.53;;;;;;;33.10;22.50;101638.91;5131895;27;20031;-82
2021/06/02 12:51:06;;;;;;;6.28;3.22;;;;;;;33.43;23.22;101628.09;5116809;27;20132;-82
2021/06/02 12:53:36;;;;;;;6.35;2.90;;;;;;;32.57;23.82;101629.66;5115837;27;20127;-82
2021/06/02 12:56:06;;;;;;;10.50;3.42;;;;;;;32.65;24.22;101642.13;5125417;27;20090;-82
2021/06/02 12:58:42;;;;;;;7.95;3.05;;;;;;;33.26;23.70;101633.50;5084369;27;20043;-83
2021/06/02 13:01:15;;;;;;;5.40;2.55;;;;;;;33.69;22.85;101636.66;5106027;28;20050;-83
2021/06/02 13:03:48;;;;;;;5.70;3.38;;;;;;;33.77;22.89;101630.41;5111010;28;20051;-83
2021/06/02 13:06:54;;;;;;;10.20;2.97;;;;;;;32.37;24.71;101631.84;5093869;28;20328;-84
2021/06/02 13:09:22;;;;;;;10.77;3.28;;;;;;;33.04;24.65;101627.09;5111397;28;20213;-83
2021/06/02 13:11:50;;;;;;;9.50;3.50;;;;;;;32.88;24.19;101619.09;5113467;28;20306;-84
2021/06/02 13:14:17;;;;;;;8.57;3.22;;;;;;;32.89;23.98;101623.41;5109472;28;20534;-83
2021/06/02 13:16:54;;;;;;;8.05;3.22;;;;;;;32.64;25.00;101611.97;5094856;28;20051;-83
2021/06/02 13:19:39;;;;;;;8.60;2.95;;;;;;;32.84;24.58;101619.59;5097824;28;20057;-83
2021/06/02 13:22:22;;;;;;;6.13;3.40;;;;;;;33.26;24.31;101619.31;5098308;28;20146;-83
2021/06/02 13:25:01;;;;;;;5.22;3.03;;;;;;;32.93;24.62;101618.59;5098668;28;20229;-83
2021/06/02 13:27:33;;;;;;;10.88;3.22;;;;;;;33.40;24.11;101607.91;5070084;28;20063;-84
2021/06/02 13:30:11;;;;;;;7.63;3.15;;;;;;;33.22;24.22;101615.34;5073585;28;20567;-82
2021/06/02 13:32:39;;;;;;;9.65;3.35;;;;;;;32.09;25.72;101620.63;5080679;28;20044;-82
2021/06/02 13:35:15;;;;;;;8.45;3.58;;;;;;;31.83;25.98;101614.63;5062680;28;20054;-84
2021/06/02 13:37:50;;;;;;;11.63;3.28;;;;;;;32.47;25.90;101607.69;5074861;28;20048;-85
2021/06/02 13:40:29;;;;;;;8.82;3.63;;;;;;;33.17;24.45;101605.19;5086352;28;20044;-84
2021/06/02 13:43:13;;;;;;;6.70;3.42;;;;;;;33.12;24.68;101612.88;5073373;28;20376;-84
2021/06/02 13:46:06;;;;;;;8.35;4.05;;;;;;;33.32;24.20;101603.44;5105051;28;20496;-84
2021/06/02 13:48:54;;;;;;;6.28;3.38;;;;;;;34.02;23.73;101599.91;5085094;28;20056;-81
2021/06/02 13:51:25;;;;;;;11.30;3.33;;;;;;;33.29;24.30;101598.47;5084652;28;20044;-82
2021/06/02 13:54:14;;;;;;;8.40;3.75;;;;;;;32.85;24.85;101599.94;5083513;28;20500;-82
2021/06/02 13:57:01;;;;;;;5.45;4.47;;;;;;;33.26;23.42;101603.31;5074925;28;20113;-82
2021/06/02 13:59:56;;;;;;;5.70;3.25;;;;;;;32.93;24.15;101603.44;5058844;28;20059;-83
2021/06/02 14:02:28;;;;;;;;;;;;;;;32.75;24.20;101606.31;5076733;28;20311;-83
2021/06/02 14:05:01;;;;;;;4.63;2.85;;;;;;;33.02;24.32;101606.91;5075507;28;20351;-83
2021/06/02 14:07:31;;;;;;;7.68;4.55;;;;;;;33.62;23.47;101608.16;5078034;28;20374;-83
2021/06/02 14:10:00;;;;;;;6.13;3.72;;;;;;;33.05;23.65;101617.25;5113987;28;20047;-82
2021/06/02 14:12:33;;;;;;;5.25;3.33;;;;;;;33.32;24.03;101606.09;5079188;28;20199;-82
2021/06/02 14:15:08;;;;;;;4.90;2.85;;;;;;;33.40;23.36;101612.41;5074997;28;20088;-84
2021/06/02 14:17:35;;;;;;;7.90;3.63;;;;;;;33.92;22.63;101603.75;5060917;28;20060;-84
2021/06/02 14:20:11;;;;;;;7.93;2.90;;;;;;;32.99;23.70;101599.25;5075945;28;20083;-85
2021/06/02 14:22:41;;;;;;;12.18;6.53;;;;;;;33.70;23.55;101603.59;5092000;28;20047;-84
2021/06/02 14:25:17;;;;;;;7.40;6.00;;;;;;;33.16;24.25;101603.53;5095539;28;20121;-83
2021/06/02 14:27:45;;;;;;;12.73;6.60;;;;;;;33.20;23.67;101598.69;5061284;28;20089;-83
2021/06/02 14:30:15;;;;;;;7.53;3.22;;;;;;;33.77;22.55;101601.88;5063414;28;20044;-84
2021/06/02 14:32:44;;;;;;;6.40;4.05;;;;;;;34.67;22.24;101601.16;5076939;28;20268;-83
2021/06/02 14:35:11;;;;;;;12.45;3.80;;;;;;;34.73;22.82;101595.06;5060981;28;20318;-83
2021/06/02 14:37:47;;;;;;;6.97;3.65;;;;;;;34.84;22.26;101591.09;5062029;28;20146;-83
2021/06/02 14:40:17;;;;;;;5.88;2.88;;;;;;;33.17;23.69;101589.16;5060345;28;20074;-83
2021/06/02 14:42:45;;;;;;;33.72;17.75;;;;;;;32.57;24.90;101599.50;5076971;28;20043;-84
2021/06/02 14:45:17;;;;;;;14.10;8.38;;;;;;;32.28;25.80;101604.31;5058076;28;20055;-84
2021/06/02 14:47:44;;;;;;;7.53;4.57;;;;;;;31.82;25.83;101599.63;5075339;28;20051;-84
2021/06/02 14:50:11;;;;;;;5.03;4.03;;;;;;;31.90;25.82;101599.66;5059597;28;20109;-83
2021/06/02 14:52:41;;;;;;;15.68;9.43;;;;;;;31.60;26.64;101601.91;5077150;28;20073;-83